Time,TemperatureF,DewpointF,PressureIn,WindDirection,WindDirectionDegrees,WindSpeedMPH,WindSpeedGustMPH,Humidity,HourlyPrecipIn,Conditions,Clouds,dailyrainin,SoftwareType,DateUTC
2013-05-23 00:02:00,60.0,56.0,-100.00,West,260,16.0,21.0,85,-99.99,,,-99.99,,2013-05-23 05:02:00,
2013-05-23 00:11:00,60.0,56.0,-100.00,West,265,14.0,18.0,85,-99.99,,,-99.99,,2013-05-23 05:11:00,
2013-05-23 00:22:00,60.0,56.0,-100.00,West,265,14.0,18.0,85,-99.99,,,-99.99,,2013-05-23 05:22:00,
2013-05-23 00:32:00,60.0,56.0,-100.00,West,260,14.0,19.0,85,-99.99,,,-99.99,,2013-05-23 05:32:00,
2013-05-23 00:42:00,60.0,56.0,-100.00,West,260,11.0,16.0,86,-99.99,,,-99.99,,2013-05-23 05:42:00,
2013-05-23 00:52:00,60.0,56.0,-100.00,West,260,11.0,16.0,86,-99.99,,,-99.99,,2013-05-23 05:52:00,
2013-05-23 01:02:00,60.0,56.0,-100.00,West,260,11.0,16.0,86,-99.99,,,-99.99,,2013-05-23 06:02:00,
2013-05-23 01:12:00,60.0,56.0,-100.00,West,260,11.0,16.0,86,-99.99,,,-99.99,,2013-05-23 06:12:00,
2013-05-23 02:11:00,59.0,56.0,-100.00,West,260,13.0,17.0,91,-99.99,,,-99.99,,2013-05-23 07:11:00,
2013-05-23 02:21:00,59.0,56.0,-100.00,West,260,13.0,17.0,91,-99.99,,,-99.99,,2013-05-23 07:21:00,
2013-05-23 02:32:00,59.0,56.0,-100.00,West,260,13.0,15.0,91,-99.99,,,-99.99,,2013-05-23 07:32:00,
2013-05-23 02:42:00,59.0,56.0,-100.00,West,260,11.0,14.0,91,-99.99,,,-99.99,,2013-05-23 07:42:00,
2013-05-23 02:59:00,59.0,56.0,-100.00,West,260,11.0,14.0,91,-99.99,,,-99.99,,2013-05-23 07:59:00,
2013-05-23 03:11:00,59.0,56.0,-100.00,West,265,14.0,16.0,91,-99.99,,,-99.99,,2013-05-23 08:11:00,
2013-05-23 03:22:00,59.0,56.0,-100.00,West,265,14.0,16.0,91,-99.99,,,-99.99,,2013-05-23 08:22:00,
2013-05-23 03:32:00,59.0,56.0,-100.00,West,265,12.0,17.0,90,-99.99,,,-99.99,,2013-05-23 08:32:00,
2013-05-23 03:42:00,58.0,56.0,-100.00,West,270,13.0,16.0,90,-99.99,,,-99.99,,2013-05-23 08:42:00,
2013-05-23 03:52:00,58.0,56.0,-100.00,West,270,13.0,16.0,90,-99.99,,,-99.99,,2013-05-23 08:52:00,
2013-05-23 04:01:00,58.0,55.0,-100.00,West,270,16.0,19.0,89,-99.99,,,-99.99,,2013-05-23 09:01:00,
2013-05-23 04:11:00,58.0,55.0,-100.00,West,270,16.0,19.0,89,-99.99,,,-99.99,,2013-05-23 09:11:00,
2013-05-23 04:21:00,58.0,55.0,-100.00,West,270,14.0,18.0,89,-99.99,,,-99.99,,2013-05-23 09:21:00,
2013-05-23 04:33:00,58.0,55.0,-100.00,West,265,14.0,18.0,90,-99.99,,,-99.99,,2013-05-23 09:33:00,
2013-05-23 04:42:00,58.0,55.0,-100.00,West,260,14.0,18.0,90,-99.99,,,-99.99,,2013-05-23 09:42:00,
2013-05-23 04:53:00,58.0,55.0,-100.00,West,260,14.0,18.0,90,-99.99,,,-99.99,,2013-05-23 09:53:00,
2013-05-23 05:02:00,58.0,55.0,-100.00,West,260,13.0,17.0,90,-99.99,,,-99.99,,2013-05-23 10:02:00,
2013-05-23 05:12:00,58.0,55.0,-100.00,West,260,13.0,17.0,90,-99.99,,,-99.99,,2013-05-23 10:12:00,
2013-05-23 05:22:00,58.0,55.0,-100.00,West,260,13.0,17.0,90,-99.99,,,-99.99,,2013-05-23 10:22:00,
2013-05-23 05:32:00,58.0,55.0,-100.00,West,270,9.0,14.0,90,-99.99,,,-99.99,,2013-05-23 10:32:00,
2013-05-23 05:42:00,57.0,54.0,-100.00,West,265,11.0,14.0,90,-99.99,,,-99.99,,2013-05-23 10:42:00,
2013-05-23 05:52:00,57.0,54.0,-100.00,West,265,11.0,14.0,90,-99.99,,,-99.99,,2013-05-23 10:52:00,
2013-05-23 06:02:00,57.0,54.0,-100.00,West,265,10.0,14.0,90,-99.99,,,-99.99,,2013-05-23 11:02:00,
2013-05-23 06:11:00,57.0,54.0,-100.00,West,260,10.0,14.0,90,-99.99,,,-99.99,,2013-05-23 11:11:00,
2013-05-23 06:22:00,57.0,54.0,-100.00,West,260,10.0,14.0,90,-99.99,,,-99.99,,2013-05-23 11:22:00,
2013-05-23 06:32:00,57.0,54.0,-100.00,West,270,10.0,14.0,90,-99.99,,,-99.99,,2013-05-23 11:32:00,
2013-05-23 06:42:00,58.0,55.0,-100.00,West,260,10.0,13.0,90,-99.99,,,-99.99,,2013-05-23 11:42:00,
2013-05-23 06:52:00,58.0,55.0,-100.00,West,260,10.0,13.0,90,-99.99,,,-99.99,,2013-05-23 11:52:00,
2013-05-23 07:01:00,58.0,55.0,-100.00,West,260,12.0,14.0,90,-99.99,,,-99.99,,2013-05-23 12:01:00,
2013-05-23 07:11:00,58.0,54.0,-100.00,West,265,14.0,19.0,88,-99.99,,,-99.99,,2013-05-23 12:11:00,
2013-05-23 07:21:00,58.0,54.0,-100.00,West,265,14.0,19.0,88,-99.99,,,-99.99,,2013-05-23 12:21:00,
2013-05-23 07:32:00,58.0,54.0,-100.00,WNW,285,17.0,22.0,88,-99.99,,,-99.99,,2013-05-23 12:32:00,
2013-05-23 07:42:00,57.0,55.0,-100.00,West,275,11.0,21.0,93,-99.99,,,-99.99,,2013-05-23 12:42:00,
2013-05-23 07:52:00,57.0,55.0,-100.00,West,275,11.0,21.0,93,-99.99,,,-99.99,,2013-05-23 12:52:00,
2013-05-23 08:01:00,56.0,55.0,-100.00,West,270,14.0,17.0,95,-99.99,,,-99.99,,2013-05-23 13:01:00,
2013-05-23 08:11:00,56.0,55.0,-100.00,West,275,13.0,16.0,95,-99.99,,,-99.99,,2013-05-23 13:11:00,
2013-05-23 08:22:00,56.0,55.0,-100.00,West,275,13.0,16.0,95,-99.99,,,-99.99,,2013-05-23 13:22:00,
2013-05-23 08:32:00,57.0,56.0,-100.00,West,265,14.0,18.0,94,-99.99,,,-99.99,,2013-05-23 13:32:00,
2013-05-23 08:42:00,57.0,55.0,-100.00,West,275,16.0,21.0,94,-99.99,,,-99.99,,2013-05-23 13:42:00,
2013-05-23 08:52:00,57.0,55.0,-100.00,West,275,16.0,21.0,94,-99.99,,,-99.99,,2013-05-23 13:52:00,
2013-05-23 09:02:00,57.0,56.0,-100.00,WNW,285,12.0,18.0,95,-99.99,,,-99.99,,2013-05-23 14:02:00,
2013-05-23 09:11:00,57.0,56.0,-100.00,WNW,290,15.0,19.0,96,-99.99,,,-99.99,,2013-05-23 14:11:00,
2013-05-23 09:21:00,57.0,56.0,-100.00,WNW,290,15.0,19.0,96,-99.99,,,-99.99,,2013-05-23 14:21:00,
2013-05-23 09:32:00,58.0,57.0,-100.00,WNW,290,14.0,18.0,96,-99.99,,,-99.99,,2013-05-23 14:32:00,
2013-05-23 09:42:00,58.0,57.0,-100.00,WNW,300,13.0,16.0,95,-99.99,,,-99.99,,2013-05-23 14:42:00,
2013-05-23 09:52:00,58.0,57.0,-100.00,WNW,300,13.0,16.0,95,-99.99,,,-99.99,,2013-05-23 14:52:00,
2013-05-23 10:01:00,59.0,57.0,-100.00,NW,305,14.0,18.0,93,-99.99,,,-99.99,,2013-05-23 15:01:00,
2013-05-23 10:11:00,60.0,58.0,-100.00,NW,310,13.0,16.0,92,-99.99,,,-99.99,,2013-05-23 15:11:00,
2013-05-23 10:21:00,60.0,58.0,-100.00,NW,310,13.0,16.0,92,-99.99,,,-99.99,,2013-05-23 15:21:00,
2013-05-23 10:33:00,60.0,57.0,-100.00,NW,305,11.0,17.0,90,-99.99,,,-99.99,,2013-05-23 15:33:00,
2013-05-23 10:42:00,60.0,58.0,-100.00,NW,320,11.0,16.0,92,-99.99,,,-99.99,,2013-05-23 15:42:00,
2013-05-23 10:53:00,60.0,58.0,-100.00,NW,320,11.0,16.0,92,-99.99,,,-99.99,,2013-05-23 15:53:00,
2013-05-23 11:03:00,60.0,58.0,-100.00,NW,325,10.0,14.0,92,-99.99,,,-99.99,,2013-05-23 16:03:00,
2013-05-23 11:12:00,58.0,56.0,-100.00,NNE,15,20.0,26.0,96,-99.99,,,-99.99,,2013-05-23 16:12:00,
2013-05-23 11:23:00,58.0,56.0,-100.00,NNE,15,20.0,26.0,96,-99.99,,,-99.99,,2013-05-23 16:23:00,
2013-05-23 11:33:00,56.0,55.0,-100.00,North,10,24.0,31.0,94,-99.99,,,-99.99,,2013-05-23 16:33:00,
2013-05-23 11:42:00,57.0,55.0,-100.00,NNE,25,21.0,31.0,94,-99.99,,,-99.99,,2013-05-23 16:42:00,
2013-05-23 11:52:00,57.0,55.0,-100.00,NNE,25,21.0,31.0,94,-99.99,,,-99.99,,2013-05-23 16:52:00,
2013-05-23 12:03:00,57.0,55.0,-100.00,NNE,20,21.0,26.0,92,-99.99,,,-99.99,,2013-05-23 17:03:00,
2013-05-23 12:11:00,58.0,55.0,-100.00,NNE,15,24.0,30.0,90,-99.99,,,-99.99,,2013-05-23 17:11:00,
2013-05-23 12:23:00,58.0,55.0,-100.00,NNE,15,24.0,30.0,90,-99.99,,,-99.99,,2013-05-23 17:23:00,
2013-05-23 12:33:00,58.0,54.0,-100.00,North,5,20.0,25.0,87,-99.99,,,-99.99,,2013-05-23 17:33:00,
2013-05-23 12:43:00,59.0,54.0,-100.00,NNE,25,20.0,30.0,83,-99.99,,,-99.99,,2013-05-23 17:43:00,
2013-05-23 12:53:00,59.0,54.0,-100.00,NNE,25,20.0,30.0,83,-99.99,,,-99.99,,2013-05-23 17:53:00,
2013-05-23 13:01:00,59.0,53.0,-100.00,NNE,20,21.0,24.0,80,-99.99,,,-99.99,,2013-05-23 18:01:00,
2013-05-23 13:11:00,59.0,53.0,-100.00,NNE,25,17.0,24.0,80,-99.99,,,-99.99,,2013-05-23 18:11:00,
2013-05-23 13:22:00,59.0,53.0,-100.00,NNE,25,17.0,24.0,80,-99.99,,,-99.99,,2013-05-23 18:22:00,
2013-05-23 13:32:00,60.0,53.0,-100.00,North,10,15.0,32.0,80,-99.99,,,-99.99,,2013-05-23 18:32:00,
2013-05-23 13:42:00,59.0,53.0,-100.00,North,5,17.0,23.0,79,-99.99,,,-99.99,,2013-05-23 18:42:00,
2013-05-23 13:52:00,59.0,53.0,-100.00,North,5,17.0,23.0,79,-99.99,,,-99.99,,2013-05-23 18:52:00,
2013-05-23 14:01:00,59.0,53.0,-100.00,North,10,17.0,24.0,79,-99.99,,,-99.99,,2013-05-23 19:01:00,
2013-05-23 14:11:00,60.0,52.0,-100.00,North,0,13.0,26.0,77,-99.99,,,-99.99,,2013-05-23 19:11:00,
2013-05-23 14:21:00,60.0,52.0,-100.00,North,0,13.0,26.0,77,-99.99,,,-99.99,,2013-05-23 19:21:00,
2013-05-23 14:32:00,59.0,51.0,-100.00,North,5,17.0,23.0,76,-99.99,,,-99.99,,2013-05-23 19:32:00,
2013-05-23 14:42:00,61.0,52.0,-100.00,North,10,16.0,21.0,72,-99.99,,,-99.99,,2013-05-23 19:42:00,
2013-05-23 14:52:00,61.0,52.0,-100.00,North,10,16.0,21.0,72,-99.99,,,-99.99,,2013-05-23 19:52:00,
2013-05-23 15:02:00,61.0,51.0,-100.00,North,0,17.0,25.0,71,-99.99,,,-99.99,,2013-05-23 20:02:00,
2013-05-23 15:11:00,61.0,52.0,-100.00,North,10,12.0,25.0,71,-99.99,,,-99.99,,2013-05-23 20:11:00,
2013-05-23 15:21:00,61.0,52.0,-100.00,North,10,12.0,25.0,71,-99.99,,,-99.99,,2013-05-23 20:21:00,
2013-05-23 15:32:00,61.0,51.0,-100.00,North,10,19.0,27.0,70,-99.99,,,-99.99,,2013-05-23 20:32:00,
2013-05-23 15:42:00,62.0,51.0,-100.00,NNE,30,19.0,24.0,68,-99.99,,,-99.99,,2013-05-23 20:42:00,
2013-05-23 15:52:00,62.0,51.0,-100.00,NNE,30,19.0,24.0,68,-99.99,,,-99.99,,2013-05-23 20:52:00,
2013-05-23 16:01:00,60.0,50.0,-100.00,NNE,20,18.0,27.0,69,-99.99,,,-99.99,,2013-05-23 21:01:00,
2013-05-23 16:11:00,62.0,50.0,-100.00,NNE,15,20.0,26.0,66,-99.99,,,-99.99,,2013-05-23 21:11:00,
2013-05-23 16:21:00,62.0,50.0,-100.00,NNE,15,20.0,26.0,66,-99.99,,,-99.99,,2013-05-23 21:21:00,
2013-05-23 16:32:00,61.0,49.0,-100.00,NNE,15,19.0,26.0,65,-99.99,,,-99.99,,2013-05-23 21:32:00,
2013-05-23 16:43:00,61.0,51.0,-100.00,North,0,16.0,24.0,68,-99.99,,,-99.99,,2013-05-23 21:43:00,
2013-05-23 16:53:00,61.0,51.0,-100.00,North,0,16.0,24.0,68,-99.99,,,-99.99,,2013-05-23 21:53:00,
2013-05-23 17:03:00,60.0,50.0,-100.00,North,10,19.0,26.0,69,-99.99,,,-99.99,,2013-05-23 22:03:00,
2013-05-23 17:12:00,62.0,51.0,-100.00,NNE,20,16.0,21.0,67,-99.99,,,-99.99,,2013-05-23 22:12:00,
2013-05-23 17:22:00,62.0,51.0,-100.00,NNE,20,16.0,21.0,67,-99.99,,,-99.99,,2013-05-23 22:22:00,
2013-05-23 17:33:00,61.0,50.0,-100.00,NNE,15,17.0,26.0,66,-99.99,,,-99.99,,2013-05-23 22:33:00,
2013-05-23 17:42:00,60.0,49.0,-100.00,North,10,17.0,26.0,67,-99.99,,,-99.99,,2013-05-23 22:42:00,
2013-05-23 17:52:00,60.0,49.0,-100.00,North,10,17.0,26.0,67,-99.99,,,-99.99,,2013-05-23 22:52:00,
2013-05-23 18:01:00,62.0,49.0,-100.00,NNE,30,17.0,26.0,63,-99.99,,,-99.99,,2013-05-23 23:01:00,
2013-05-23 18:11:00,60.0,49.0,-100.00,NNE,20,14.0,24.0,66,-99.99,,,-99.99,,2013-05-23 23:11:00,
2013-05-23 18:21:00,60.0,49.0,-100.00,NNE,20,14.0,24.0,66,-99.99,,,-99.99,,2013-05-23 23:21:00,
2013-05-23 18:32:00,60.0,49.0,-100.00,NNE,20,14.0,20.0,67,-99.99,,,-99.99,,2013-05-23 23:32:00,
2013-05-23 18:42:00,60.0,49.0,-100.00,North,5,14.0,19.0,67,-99.99,,,-99.99,,2013-05-23 23:42:00,
2013-05-23 18:52:00,60.0,49.0,-100.00,North,5,14.0,19.0,67,-99.99,,,-99.99,,2013-05-23 23:52:00,
2013-05-23 19:01:00,59.0,48.0,-100.00,NE,35,14.0,21.0,67,-99.99,,,-99.99,,2013-05-24 00:01:00,
2013-05-23 19:12:00,59.0,49.0,-100.00,NNE,20,14.0,17.0,69,-99.99,,,-99.99,,2013-05-24 00:12:00,
2013-05-23 19:21:00,59.0,49.0,-100.00,NNE,20,14.0,17.0,69,-99.99,,,-99.99,,2013-05-24 00:21:00,
2013-05-23 19:32:00,58.0,49.0,-100.00,NNE,25,14.0,18.0,71,-99.99,,,-99.99,,2013-05-24 00:32:00,
2013-05-23 19:42:00,58.0,49.0,-100.00,NNE,30,13.0,18.0,72,-99.99,,,-99.99,,2013-05-24 00:42:00,
2013-05-23 19:52:00,58.0,49.0,-100.00,NNE,30,13.0,18.0,72,-99.99,,,-99.99,,2013-05-24 00:52:00,
2013-05-23 20:01:00,58.0,49.0,-100.00,NE,35,11.0,14.0,73,-99.99,,,-99.99,,2013-05-24 01:01:00,
2013-05-23 20:12:00,57.0,49.0,-100.00,NE,40,14.0,18.0,75,-99.99,,,-99.99,,2013-05-24 01:12:00,
2013-05-23 20:22:00,57.0,49.0,-100.00,NE,40,14.0,18.0,75,-99.99,,,-99.99,,2013-05-24 01:22:00,
2013-05-23 20:32:00,56.0,49.0,-100.00,NE,50,8.0,15.0,77,-99.99,,,-99.99,,2013-05-24 01:32:00,
2013-05-23 20:42:00,55.0,49.0,-100.00,NE,50,8.0,11.0,81,-99.99,,,-99.99,,2013-05-24 01:42:00,
2013-05-23 20:52:00,55.0,49.0,-100.00,NE,50,8.0,11.0,81,-99.99,,,-99.99,,2013-05-24 01:52:00,
2013-05-23 21:01:00,54.0,49.0,-100.00,NE,50,7.0,10.0,83,-99.99,,,-99.99,,2013-05-24 02:01:00,
2013-05-23 21:11:00,53.0,48.0,-100.00,ENE,60,6.0,9.0,85,-99.99,,,-99.99,,2013-05-24 02:11:00,
2013-05-23 21:21:00,53.0,48.0,-100.00,ENE,60,6.0,9.0,85,-99.99,,,-99.99,,2013-05-24 02:21:00,
2013-05-23 21:32:00,52.0,48.0,-100.00,ENE,60,6.0,8.0,86,-99.99,,,-99.99,,2013-05-24 02:32:00,
2013-05-23 21:42:00,51.0,48.0,-100.00,NE,55,4.0,6.0,88,-99.99,,,-99.99,,2013-05-24 02:42:00,
2013-05-23 21:52:00,51.0,48.0,-100.00,NE,55,4.0,6.0,88,-99.99,,,-99.99,,2013-05-24 02:52:00,
2013-05-23 22:02:00,50.0,47.0,-100.00,NE,45,6.0,7.0,89,-99.99,,,-99.99,,2013-05-24 03:02:00,
2013-05-23 22:11:00,50.0,47.0,-100.00,NE,50,6.0,6.0,90,-99.99,,,-99.99,,2013-05-24 03:11:00,
2013-05-23 22:22:00,50.0,47.0,-100.00,NE,50,6.0,6.0,90,-99.99,,,-99.99,,2013-05-24 03:22:00,
2013-05-23 22:33:00,50.0,47.0,-100.00,NE,45,6.0,7.0,91,-99.99,,,-99.99,,2013-05-24 03:33:00,
2013-05-23 22:42:00,50.0,47.0,-100.00,NE,45,6.0,8.0,91,-99.99,,,-99.99,,2013-05-24 03:42:00,
2013-05-23 22:53:00,50.0,47.0,-100.00,NE,45,6.0,8.0,91,-99.99,,,-99.99,,2013-05-24 03:53:00,
2013-05-23 23:03:00,49.0,47.0,-100.00,NE,40,6.0,7.0,92,-99.99,,,-99.99,,2013-05-24 04:03:00,
2013-05-23 23:12:00,49.0,46.0,-100.00,NE,35,6.0,9.0,92,-99.99,,,-99.99,,2013-05-24 04:12:00,
2013-05-23 23:22:00,49.0,46.0,-100.00,NE,35,6.0,9.0,92,-99.99,,,-99.99,,2013-05-24 04:22:00,
2013-05-23 23:33:00,48.0,46.0,-100.00,NE,40,6.0,7.0,93,-99.99,,,-99.99,,2013-05-24 04:33:00,
2013-05-23 23:42:00,48.0,46.0,-100.00,NE,50,6.0,7.0,94,-99.99,,,-99.99,,2013-05-24 04:42:00,
2013-05-23 23:53:00,48.0,46.0,-100.00,NE,50,6.0,7.0,94,-99.99,,,-99.99,,2013-05-24 04:53:00,